Terminal Aerodrome Forecast
Issued by NWS

Home | Current Version | Previous Version | Text Only | Print | Product List | Glossary On
Versions: 1 2 3 4 5 6 7 8 9 10 11 12 13 14 15 16 17 18 19 20
000
FTUS43 KEAX 291540 AAB
TAFSTJ
TAF AMD
KSTJ 291540Z 2916/3012 35005KT P6SM OVC004
     FM291700 01006KT P6SM OVC008
     FM291900 01006KT P6SM BKN015
     FM292100 01005KT P6SM BKN025
     FM300000 03004KT P6SM SKC=

USA.gov is the U.S. government's official web portal to all federal, state and local government web resources and services.